Time;durP1;ratioP1;P1;durP2;ratioP2;P2;SDS_P1;SDS_P2;PMS_P1;PMS_P2;Temp;Humidity;BMP_temperature;BMP_pressure;BME280_temperature;BME280_humidity;BME280_pressure;Samples;Min_cycle;Max_cycle;Signal;HPM_P1;HPM_P2
2023/02/21 02:14:09;;;;;;;50.78;24.38;;;10.30;86.50;;;;;;9179862;19;20513;-66
2023/02/21 02:17:28;;;;;;;50.72;25.23;;;10.30;87.00;;;;;;9178752;19;20018;-65
2023/02/21 02:20:57;;;;;;;51.20;25.98;;;10.30;87.00;;;;;;9175094;19;20035;-65
2023/02/21 02:24:41;;;;;;;50.70;23.80;;;10.30;87.00;;;;;;9177506;19;20014;-65
2023/02/21 02:28:24;;;;;;;50.05;26.23;;;10.30;87.00;;;;;;9179197;19;20017;-65
2023/02/21 02:32:01;;;;;;;54.30;26.27;;;10.30;87.00;;;;;;9177719;19;20078;-67
2023/02/21 02:35:10;;;;;;;52.17;25.25;;;10.30;87.00;;;;;;9178794;19;20022;-66
2023/02/21 02:38:26;;;;;;;59.75;26.15;;;10.30;87.00;;;;;;9177166;19;20017;-65
2023/02/21 02:41:44;;;;;;;46.58;23.63;;;10.30;87.00;;;;;;9174442;19;20026;-66
2023/02/21 02:44:54;;;;;;;47.80;24.48;;;10.30;87.00;;;;;;9177350;19;20010;-66
2023/02/21 02:48:03;;;;;;;46.97;24.27;;;10.30;87.00;;;;;;9176384;19;20710;-64
2023/02/21 02:51:15;;;;;;;50.53;24.63;;;10.30;87.00;;;;;;9178247;19;20019;-65
2023/02/21 02:54:21;;;;;;;59.85;25.08;;;10.30;87.00;;;;;;9177115;19;20023;-65
2023/02/21 02:57:28;;;;;;;57.13;25.35;;;10.30;87.00;;;;;;9178576;19;20011;-67
2023/02/21 03:00:35;;;;;;;53.97;25.90;;;10.30;87.00;;;;;;9177761;19;20015;-66
2023/02/21 03:03:55;;;;;;;56.80;25.05;;;10.30;87.10;;;;;;9177609;19;20018;-66
2023/02/21 03:07:08;;;;;;;47.65;23.15;;;10.30;87.10;;;;;;9176362;19;20037;-66
2023/02/21 03:10:20;;;;;;;59.08;26.42;;;10.30;87.10;;;;;;9172530;19;20010;-66
2023/02/21 03:13:36;;;;;;;52.97;25.08;;;10.30;87.10;;;;;;9177713;19;20014;-66
2023/02/21 03:16:48;;;;;;;52.22;24.63;;;10.30;87.10;;;;;;9175457;19;20018;-65
2023/02/21 03:19:55;;;;;;;64.80;26.15;;;10.30;87.10;;;;;;9172830;19;20014;-67
2023/02/21 03:23:05;;;;;;;53.28;25.27;;;10.30;87.10;;;;;;9175506;19;20015;-65
2023/02/21 03:26:12;;;;;;;58.42;25.48;;;10.30;87.20;;;;;;9175538;19;20038;-64
2023/02/21 03:29:22;;;;;;;55.78;24.55;;;10.30;87.20;;;;;;9173188;19;20022;-66
2023/02/21 03:35:34;;;;;;;54.72;23.83;;;10.30;87.20;;;;;;9174833;19;20014;-68
2023/02/21 03:38:41;;;;;;;;;;;10.30;87.20;;;;;;9176249;19;20018;-67
2023/02/21 03:41:46;;;;;;;48.17;22.15;;;10.30;87.20;;;;;;9173891;19;19919;-65
2023/02/21 03:44:51;;;;;;;54.50;24.35;;;10.30;87.10;;;;;;9174476;19;20023;-68
2023/02/21 03:47:58;;;;;;;54.17;24.90;;;10.30;87.10;;;;;;9173604;19;20368;-65
2023/02/21 03:51:02;;;;;;;;;;;10.30;87.20;;;;;;9177187;19;20417;-66
2023/02/21 03:54:16;;;;;;;53.28;25.00;;;10.30;87.20;;;;;;9181006;19;19914;-65
2023/02/21 03:57:24;;;;;;;49.72;25.15;;;10.30;87.10;;;;;;9183348;19;20011;-65
2023/02/21 04:00:30;;;;;;;53.67;24.45;;;10.30;87.10;;;;;;9181238;19;20014;-66
2023/02/21 04:03:33;;;;;;;;;;;10.30;87.20;;;;;;9183718;19;20018;-66
2023/02/21 04:06:42;;;;;;;58.20;24.27;;;10.30;87.20;;;;;;9182103;19;19919;-66
2023/02/21 04:09:49;;;;;;;58.83;25.48;;;10.30;87.10;;;;;;9180691;19;20018;-66
2023/02/21 04:13:02;;;;;;;50.55;24.55;;;10.30;87.20;;;;;;9182649;19;20104;-65
2023/02/21 04:16:10;;;;;;;55.58;25.00;;;10.30;87.20;;;;;;9181676;19;20387;-65
2023/02/21 04:19:17;;;;;;;60.95;25.55;;;10.30;87.30;;;;;;9177637;19;20408;-65
2023/02/21 04:22:21;;;;;;;59.28;25.35;;;10.30;87.20;;;;;;9181505;19;20018;-64
2023/02/21 04:25:29;;;;;;;48.65;24.48;;;10.30;87.20;;;;;;9181682;19;20010;-65
2023/02/21 04:28:38;;;;;;;54.53;25.90;;;10.30;87.20;;;;;;9182652;19;20490;-66
2023/02/21 04:31:44;;;;;;;60.97;26.45;;;10.30;87.20;;;;;;9181250;19;20018;-66
2023/02/21 04:34:52;;;;;;;63.25;26.45;;;10.30;87.20;;;;;;9181241;19;20042;-67
2023/02/21 04:37:58;;;;;;;52.10;24.30;;;10.30;87.20;;;;;;9180947;19;20011;-66
2023/02/21 04:41:04;;;;;;;;;;;10.30;87.20;;;;;;9181799;19;20014;-67
2023/02/21 04:44:10;;;;;;;56.80;23.42;;;10.30;87.20;;;;;;9180898;19;19928;-66
2023/02/21 04:47:14;;;;;;;;;;;10.30;87.10;;;;;;9181761;19;20018;-67
2023/02/21 04:50:20;;;;;;;56.30;24.52;;;10.30;87.20;;;;;;9180494;19;19919;-66
2023/02/21 04:53:24;;;;;;;53.72;24.92;;;10.30;87.10;;;;;;9182955;19;20502;-65
2023/02/21 04:56:32;;;;;;;56.25;24.90;;;10.30;87.20;;;;;;9180799;19;20054;-66
2023/02/21 04:59:36;;;;;;;56.72;25.75;;;10.30;87.20;;;;;;9183703;19;20018;-66
2023/02/21 05:02:44;;;;;;;61.60;26.25;;;10.30;87.20;;;;;;9181498;19;20014;-65
2023/02/21 05:05:47;;;;;;;53.33;27.55;;;10.30;87.20;;;;;;9181354;19;20074;-65
2023/02/21 05:08:53;;;;;;;63.92;26.67;;;10.30;87.30;;;;;;9180883;19;20396;-65
2023/02/21 05:11:59;;;;;;;;;;;10.30;87.30;;;;;;9180409;19;20039;-65
2023/02/21 05:15:06;;;;;;;64.75;26.98;;;10.30;87.30;;;;;;9181857;19;20323;-67
2023/02/21 05:18:10;;;;;;;71.93;28.50;;;10.30;87.20;;;;;;9181787;19;20037;-64
2023/02/21 05:21:17;;;;;;;53.67;26.20;;;10.30;87.30;;;;;;9178656;19;20349;-65
2023/02/21 05:24:21;;;;;;;66.30;28.13;;;10.30;87.30;;;;;;9181479;19;20103;-65
2023/02/21 05:27:29;;;;;;;67.10;29.55;;;10.30;87.20;;;;;;9181210;19;20018;-64
2023/02/21 05:30:33;;;;;;;65.40;27.52;;;10.30;87.30;;;;;;9178881;19;20018;-66
2023/02/21 05:33:39;;;;;;;62.42;27.85;;;10.30;87.30;;;;;;9181502;19;20029;-65
2023/02/21 05:36:43;;;;;;;;;;;10.30;87.30;;;;;;9182136;19;20031;-66
2023/02/21 05:39:49;;;;;;;55.55;24.48;;;10.30;87.30;;;;;;9180777;19;19929;-66
2023/02/21 05:42:55;;;;;;;68.78;27.75;;;10.30;87.20;;;;;;9181204;19;20018;-66
2023/02/21 05:46:00;;;;;;;58.20;28.10;;;10.30;87.30;;;;;;9181369;19;20017;-65
2023/02/21 05:49:05;;;;;;;;;;;10.30;87.40;;;;;;9180328;19;20014;-65
2023/02/21 05:52:13;;;;;;;62.50;27.05;;;10.30;87.30;;;;;;9179427;19;19918;-66
2023/02/21 05:55:17;;;;;;;62.72;26.65;;;10.20;87.20;;;;;;9180571;19;20019;-68
2023/02/21 05:58:25;;;;;;;60.08;29.30;;;10.20;87.20;;;;;;9179719;19;20021;-65
2023/02/21 06:01:29;;;;;;;69.20;28.73;;;10.30;87.40;;;;;;9179731;19;20015;-67
2023/02/21 06:04:35;;;;;;;69.20;29.00;;;10.30;87.50;;;;;;9179617;19;20641;-66
2023/02/21 06:07:39;;;;;;;60.15;28.15;;;10.20;87.40;;;;;;9180193;19;20093;-69
2023/02/21 06:10:44;;;;;;;61.85;28.40;;;10.20;87.40;;;;;;9176801;19;20479;-64
2023/02/21 06:13:53;;;;;;;59.90;28.30;;;10.20;87.40;;;;;;9179571;19;20063;-66
2023/02/21 06:17:01;;;;;;;66.00;28.10;;;10.20;87.40;;;;;;9178013;19;20018;-65
2023/02/21 06:20:06;;;;;;;73.32;28.98;;;10.20;87.40;;;;;;9175102;19;20105;-65
2023/02/21 06:23:12;;;;;;;60.47;28.75;;;10.20;87.40;;;;;;9179567;19;20006;-67
2023/02/21 06:26:17;;;;;;;58.60;28.52;;;10.20;87.50;;;;;;9179358;19;20575;-65
2023/02/21 06:29:25;;;;;;;65.60;28.55;;;10.20;87.50;;;;;;9177763;19;20018;-66
2023/02/21 06:32:29;;;;;;;61.53;27.77;;;10.20;87.50;;;;;;9179363;19;20094;-67
2023/02/21 06:35:34;;;;;;;69.18;29.00;;;10.20;87.60;;;;;;9179508;19;20022;-65
2023/02/21 06:38:38;;;;;;;;;;;10.20;87.60;;;;;;9180156;19;20513;-66
2023/02/21 06:41:44;;;;;;;65.65;28.45;;;10.20;87.60;;;;;;9178668;19;19914;-65
2023/02/21 06:44:50;;;;;;;74.65;30.35;;;10.20;87.50;;;;;;9178756;19;20019;-66
2023/02/21 06:47:56;;;;;;;71.18;30.52;;;10.20;88.20;;;;;;9178124;19;20353;-68
2023/02/21 06:51:00;;;;;;;74.43;29.75;;;10.10;87.60;;;;;;9172777;19;20434;-66
2023/02/21 06:54:07;;;;;;;67.60;30.15;;;10.20;87.70;;;;;;9178530;19;20751;-66
2023/02/21 06:57:11;;;;;;;76.15;32.50;;;10.20;87.70;;;;;;9178301;19;20380;-65
2023/02/21 07:00:20;;;;;;;69.32;28.83;;;10.10;87.70;;;;;;9177896;19;20026;-67
2023/02/21 07:03:24;;;;;;;76.70;32.00;;;10.20;87.80;;;;;;9176437;19;20023;-65
2023/02/21 07:06:32;;;;;;;79.47;31.65;;;10.20;87.70;;;;;;9177959;19;20003;-66
2023/02/21 07:09:36;;;;;;;77.65;32.55;;;10.10;87.70;;;;;;9167065;19;20022;-68
2023/02/21 07:12:41;;;;;;;82.53;31.98;;;10.20;87.80;;;;;;9165990;19;20021;-65
2023/02/21 07:15:47;;;;;;;82.95;31.60;;;10.10;87.80;;;;;;9170601;19;20479;-67
2023/02/21 07:18:53;;;;;;;73.50;30.85;;;10.20;87.90;;;;;;9164958;19;20014;-65
2023/02/21 07:21:57;;;;;;;;;;;10.20;87.90;;;;;;9171992;19;20019;-66
2023/02/21 07:25:03;;;;;;;82.43;32.10;;;10.10;87.80;;;;;;9171653;19;19915;-66
2023/02/21 07:28:08;;;;;;;78.93;31.85;;;10.10;87.70;;;;;;9169125;19;20023;-69
2023/02/21 07:31:16;;;;;;;90.68;35.42;;;10.10;87.80;;;;;;9168981;19;20014;-67
2023/02/21 07:34:23;;;;;;;91.03;34.28;;;10.10;87.80;;;;;;9169678;19;20361;-64
2023/02/21 07:37:29;;;;;;;97.65;34.33;;;10.10;87.80;;;;;;9168504;19;20054;-64
2023/02/21 07:40:32;;;;;;;95.82;34.00;;;10.10;87.90;;;;;;9173109;19;20127;-66
2023/02/21 07:43:38;;;;;;;84.35;30.98;;;10.10;88.00;;;;;;9169566;19;20018;-67
2023/02/21 07:46:52;;;;;;;78.88;31.02;;;10.10;87.90;;;;;;9166212;19;20024;-66
2023/02/21 07:49:58;;;;;;;96.10;34.25;;;10.10;88.60;;;;;;9172974;19;20010;-65
2023/02/21 07:53:02;;;;;;;79.82;31.42;;;10.10;88.00;;;;;;9176741;19;20044;-64
2023/02/21 07:56:08;;;;;;;84.68;30.55;;;10.10;88.00;;;;;;9173292;19;20014;-67
2023/02/21 07:59:12;;;;;;;83.35;32.22;;;10.10;88.00;;;;;;9176501;19;20010;-65
2023/02/21 08:02:20;;;;;;;98.47;33.25;;;10.20;88.10;;;;;;9175968;19;20014;-65
2023/02/21 08:05:24;;;;;;;95.07;34.35;;;10.20;88.10;;;;;;9174075;19;20026;-66
2023/02/21 08:08:30;;;;;;;89.55;33.20;;;10.20;88.10;;;;;;9175377;19;20014;-66
2023/02/21 08:11:35;;;;;;;;;;;10.10;88.10;;;;;;9174524;19;20049;-65
2023/02/21 08:14:41;;;;;;;85.22;32.17;;;10.20;88.10;;;;;;9176049;19;19918;-64
2023/02/21 08:17:49;;;;;;;88.05;33.03;;;10.10;87.90;;;;;;9167315;19;20058;-65
2023/02/21 08:20:56;;;;;;;98.22;32.63;;;10.10;88.00;;;;;;9170562;19;20102;-64
2023/02/21 08:24:00;;;;;;;83.28;33.83;;;10.10;88.00;;;;;;9168795;19;20015;-69
2023/02/21 08:27:06;;;;;;;90.88;33.35;;;10.10;88.10;;;;;;9165894;19;20469;-68
2023/02/21 08:30:13;;;;;;;88.10;31.75;;;10.20;88.20;;;;;;9163061;19;20376;-66
2023/02/21 08:33:21;;;;;;;91.63;34.50;;;10.10;88.20;;;;;;9165467;19;20025;-65
2023/02/21 08:36:32;;;;;;;81.50;32.00;;;10.10;88.20;;;;;;9169295;19;20086;-64
2023/02/21 08:39:38;;;;;;;92.67;34.10;;;10.10;88.30;;;;;;9180421;19;20022;-66
2023/02/21 08:42:42;;;;;;;87.97;33.17;;;10.10;88.20;;;;;;9173984;19;20514;-64
2023/02/21 08:45:48;;;;;;;80.60;31.98;;;10.10;88.20;;;;;;9175139;19;20022;-66
2023/02/21 08:48:54;;;;;;;;;;;10.10;88.30;;;;;;9174709;19;20022;-64
2023/02/21 08:52:00;;;;;;;82.07;31.00;;;10.20;88.30;;;;;;9173631;19;19919;-66
2023/02/21 08:55:04;;;;;;;;;;;10.10;88.10;;;;;;9176547;19;20050;-65
2023/02/21 08:58:12;;;;;;;81.80;30.10;;;10.20;88.20;;;;;;9173813;19;19930;-65
2023/02/21 09:01:17;;;;;;;75.70;30.05;;;10.20;88.20;;;;;;9175950;19;20038;-70
2023/02/21 09:04:26;;;;;;;81.07;31.08;;;10.20;88.20;;;;;;9174994;19;20464;-67
2023/02/21 09:07:32;;;;;;;82.00;31.55;;;10.20;88.30;;;;;;9164694;19;20047;-68
2023/02/21 09:10:45;;;;;;;82.45;31.30;;;10.20;88.30;;;;;;9166220;19;20021;-67
2023/02/21 09:13:51;;;;;;;82.45;30.88;;;10.10;88.30;;;;;;9170732;19;20019;-66
2023/02/21 09:16:57;;;;;;;85.68;31.15;;;10.20;88.40;;;;;;9170875;19;20010;-66
2023/02/21 09:20:06;;;;;;;81.15;30.58;;;10.20;88.40;;;;;;9171000;19;20609;-69
2023/02/21 09:23:14;;;;;;;79.93;30.83;;;10.20;88.40;;;;;;9173627;19;20011;-66
2023/02/21 09:26:18;;;;;;;74.32;29.38;;;10.20;88.40;;;;;;9165872;19;20495;-67
2023/02/21 09:29:23;;;;;;;79.53;30.63;;;10.20;88.40;;;;;;9167274;19;20491;-65
2023/02/21 09:32:31;;;;;;;85.95;32.25;;;10.20;88.40;;;;;;9164565;19;20500;-65
2023/02/21 09:35:39;;;;;;;89.25;30.77;;;10.30;88.50;;;;;;9171138;19;20021;-64
2023/02/21 09:38:43;;;;;;;77.95;32.40;;;10.30;89.10;;;;;;9168062;19;20027;-65
2023/02/21 09:41:50;;;;;;;85.70;31.58;;;10.30;88.50;;;;;;9169248;19;20678;-67
2023/02/21 09:44:54;;;;;;;82.43;31.58;;;10.30;88.50;;;;;;9170821;19;20029;-65
2023/02/21 09:48:05;;;;;;;79.93;30.52;;;10.30;88.50;;;;;;9172175;19;20018;-66
2023/02/21 09:51:13;;;;;;;79.95;29.17;;;10.30;88.50;;;;;;9163340;19;20039;-66
2023/02/21 09:54:25;;;;;;;80.25;32.10;;;10.30;88.50;;;;;;9167137;19;20010;-66
2023/02/21 09:57:29;;;;;;;77.07;29.35;;;10.30;88.50;;;;;;9168115;19;20783;-66
2023/02/21 10:00:37;;;;;;;77.90;29.23;;;10.40;88.50;;;;;;9166648;19;20018;-66
2023/02/21 10:03:48;;;;;;;81.85;31.27;;;10.40;88.50;;;;;;9166476;19;20033;-67
2023/02/21 10:07:00;;;;;;;74.70;29.70;;;10.40;88.50;;;;;;9165897;19;20364;-65
2023/02/21 10:10:12;;;;;;;75.90;28.77;;;10.40;88.60;;;;;;9165882;19;20027;-66
2023/02/21 10:13:40;;;;;;;73.50;29.08;;;10.40;88.60;;;;;;9173472;19;20022;-66
2023/02/21 10:16:49;;;;;;;70.93;28.48;;;10.40;88.60;;;;;;9172731;19;20046;-69
2023/02/21 10:19:59;;;;;;;76.55;29.40;;;10.40;88.50;;;;;;9162869;19;20022;-64
2023/02/21 10:23:13;;;;;;;66.68;26.35;;;10.50;88.60;;;;;;9165814;19;20022;-64
2023/02/21 10:26:25;;;;;;;67.85;26.80;;;10.50;88.60;;;;;;9167774;19;20494;-64
2023/02/21 10:29:40;;;;;;;67.20;28.23;;;10.50;88.60;;;;;;9161740;19;20025;-67
2023/02/21 10:32:47;;;;;;;70.18;27.35;;;10.50;88.60;;;;;;9159877;19;20742;-65
2023/02/21 10:35:53;;;;;;;77.72;29.55;;;10.50;88.60;;;;;;9162240;19;20014;-64
2023/02/21 10:39:13;;;;;;;65.45;26.48;;;10.60;88.60;;;;;;9166166;19;20026;-66
2023/02/21 10:42:32;;;;;;;63.00;26.50;;;10.60;88.60;;;;;;9164850;19;20622;-66
2023/02/21 10:45:42;;;;;;;66.97;26.00;;;10.60;88.60;;;;;;9165472;19;21726;-65
2023/02/21 10:48:53;;;;;;;63.15;27.30;;;10.60;88.50;;;;;;9166171;19;20024;-67
2023/02/21 10:52:12;;;;;;;61.75;25.08;;;10.60;88.60;;;;;;9168033;19;20011;-66
2023/02/21 10:55:20;;;;;;;63.95;26.55;;;10.70;88.60;;;;;;9165185;19;20503;-71
2023/02/21 10:58:39;;;;;;;64.28;26.38;;;10.70;88.60;;;;;;9164977;19;20017;-66
2023/02/21 11:01:45;;;;;;;58.33;24.83;;;10.70;88.60;;;;;;9165032;19;20014;-64
2023/02/21 11:04:54;;;;;;;55.13;23.75;;;10.70;88.60;;;;;;9163783;19;20037;-70
2023/02/21 11:08:01;;;;;;;60.38;23.73;;;10.70;88.60;;;;;;9164622;19;20030;-66
2023/02/21 11:11:09;;;;;;;56.67;23.98;;;10.70;88.50;;;;;;9161098;19;20017;-65
2023/02/21 11:14:26;;;;;;;57.95;24.50;;;10.70;88.50;;;;;;9163461;19;20046;-66
2023/02/21 11:17:33;;;;;;;59.72;23.95;;;10.80;88.60;;;;;;9163506;19;20014;-69
2023/02/21 11:20:37;;;;;;;56.15;23.02;;;10.80;88.50;;;;;;9158549;19;20019;-66
2023/02/21 11:23:49;;;;;;;55.20;23.55;;;10.80;89.20;;;;;;9163156;19;20018;-65
2023/02/21 11:26:55;;;;;;;50.67;23.38;;;10.80;88.60;;;;;;9164731;19;20048;-66
2023/02/21 11:30:04;;;;;;;54.15;23.58;;;10.80;88.50;;;;;;9160676;19;20026;-67
2023/02/21 11:33:09;;;;;;;55.92;23.95;;;10.80;88.50;;;;;;9163119;19;20078;-66
2023/02/21 11:36:19;;;;;;;56.88;22.42;;;10.90;88.90;;;;;;9163019;19;20141;-68
2023/02/21 11:39:26;;;;;;;51.22;22.65;;;10.90;88.50;;;;;;9164903;19;20795;-65
2023/02/21 11:42:35;;;;;;;55.70;23.23;;;10.90;88.50;;;;;;9162785;19;20010;-67
2023/02/21 11:45:41;;;;;;;49.53;23.08;;;11.00;88.50;;;;;;9164144;19;20011;-65
2023/02/21 11:48:58;;;;;;;58.67;23.15;;;11.00;88.40;;;;;;9167712;19;20014;-66
2023/02/21 11:52:05;;;;;;;55.08;24.27;;;11.00;88.40;;;;;;9160439;19;20014;-67
2023/02/21 11:55:16;;;;;;;56.72;22.75;;;11.00;88.40;;;;;;9161523;19;20011;-65
2023/02/21 11:58:28;;;;;;;61.97;23.00;;;11.00;88.40;;;;;;9161235;19;20018;-66
2023/02/21 12:01:39;;;;;;;59.15;22.70;;;11.00;88.40;;;;;;9161273;19;20023;-66
2023/02/21 12:04:57;;;;;;;55.80;23.80;;;11.00;88.40;;;;;;9160862;19;20052;-66
2023/02/21 12:08:24;;;;;;;51.63;22.35;;;11.00;88.30;;;;;;9161384;19;20025;-66
2023/02/21 12:11:37;;;;;;;52.72;21.40;;;11.00;88.30;;;;;;9159679;19;20081;-67
2023/02/21 12:14:59;;;;;;;56.65;22.33;;;11.00;88.30;;;;;;9167435;19;20029;-65
2023/02/21 12:18:23;;;;;;;50.90;21.90;;;11.00;88.40;;;;;;9168972;19;20023;-64
2023/02/21 12:22:00;;;;;;;59.90;22.85;;;11.00;88.40;;;;;;9167310;19;20019;-66
2023/02/21 12:25:15;;;;;;;55.72;21.50;;;11.00;88.30;;;;;;9167452;19;20022;-65
2023/02/21 12:28:33;;;;;;;53.28;22.13;;;11.10;88.40;;;;;;9164678;19;20015;-65
2023/02/21 12:32:00;;;;;;;55.97;22.70;;;11.10;88.40;;;;;;9163101;19;20046;-64
2023/02/21 12:35:33;;;;;;;56.88;24.15;;;11.10;88.40;;;;;;9162966;19;20026;-66
2023/02/21 12:38:44;;;;;;;54.13;22.90;;;11.10;88.30;;;;;;9164412;19;20607;-65
2023/02/21 12:42:12;;;;;;;58.65;24.05;;;11.10;88.30;;;;;;9177444;19;20018;-65
2023/02/21 12:45:30;;;;;;;56.85;22.73;;;11.10;88.30;;;;;;9172606;19;20105;-64
2023/02/21 12:48:43;;;;;;;52.45;21.20;;;11.10;88.30;;;;;;9174257;19;20007;-66
2023/02/21 12:51:51;;;;;;;54.40;21.52;;;11.10;88.30;;;;;;9155277;19;20495;-64
2023/02/21 12:55:03;;;;;;;57.80;22.42;;;11.10;88.20;;;;;;9164092;19;20352;-64
2023/02/21 12:58:15;;;;;;;54.80;22.98;;;11.10;88.30;;;;;;9165188;19;20417;-66
2023/02/21 13:01:26;;;;;;;57.03;21.63;;;11.10;88.20;;;;;;9167136;19;20014;-68
2023/02/21 13:04:45;;;;;;;54.78;21.25;;;11.10;88.20;;;;;;9172460;19;20413;-66
2023/02/21 13:07:56;;;;;;;52.33;22.23;;;11.10;88.30;;;;;;9172200;19;20019;-65
2023/02/21 13:11:11;;;;;;;53.90;21.85;;;11.10;88.30;;;;;;9167669;19;20014;-65
2023/02/21 13:14:24;;;;;;;57.70;23.80;;;11.10;88.30;;;;;;9174763;19;20480;-65
2023/02/21 13:17:28;;;;;;;51.78;21.67;;;11.10;88.30;;;;;;9173685;19;20375;-65
2023/02/21 13:20:40;;;;;;;50.45;19.17;;;11.10;88.20;;;;;;9170661;19;20014;-67
2023/02/21 13:23:51;;;;;;;40.90;19.13;;;11.10;88.20;;;;;;9172003;19;20018;-65
2023/02/21 13:27:18;;;;;;;40.97;17.23;;;11.10;88.30;;;;;;9171640;19;20014;-66
2023/02/21 13:30:29;;;;;;;45.33;17.95;;;11.10;88.30;;;;;;9167728;19;20494;-68
2023/02/21 13:33:42;;;;;;;47.70;19.15;;;11.10;88.30;;;;;;9172035;19;20483;-68
2023/02/21 13:36:48;;;;;;;44.35;17.70;;;11.10;88.30;;;;;;9172352;19;20035;-66
2023/02/21 13:40:06;;;;;;;46.95;18.70;;;11.00;88.30;;;;;;9169514;19;20029;-63
2023/02/21 13:43:14;;;;;;;45.65;19.67;;;11.10;88.40;;;;;;9173271;19;20045;-67
2023/02/21 13:46:56;;;;;;;46.90;18.88;;;11.00;88.30;;;;;;9178731;19;20007;-67
2023/02/21 13:50:00;;;;;;;42.95;19.38;;;11.00;88.40;;;;;;9169014;19;20022;-66
2023/02/21 13:53:17;;;;;;;42.15;18.48;;;11.00;88.30;;;;;;9176061;19;20021;-64
2023/02/21 13:56:21;;;;;;;45.30;19.23;;;11.10;88.50;;;;;;9169296;19;20498;-67
2023/02/21 13:59:37;;;;;;;48.83;20.80;;;11.00;88.40;;;;;;9169468;19;20025;-64
2023/02/21 14:02:55;;;;;;;49.90;21.00;;;11.00;88.50;;;;;;9171495;19;20018;-66
2023/02/21 14:06:27;;;;;;;47.70;18.95;;;11.00;88.50;;;;;;9175303;19;20017;-66
2023/02/21 14:09:36;;;;;;;45.78;18.95;;;11.10;88.60;;;;;;9172214;19;20528;-66
2023/02/21 14:12:44;;;;;;;43.63;19.40;;;11.10;88.50;;;;;;9165229;19;20006;-67
2023/02/21 14:15:51;;;;;;;48.97;19.25;;;11.10;88.50;;;;;;9177059;19;20015;-66
2023/02/21 14:19:00;;;;;;;45.42;20.08;;;11.10;88.50;;;;;;9166226;19;20019;-66
2023/02/21 14:22:10;;;;;;;40.70;18.58;;;11.10;88.50;;;;;;9173129;19;20014;-65
2023/02/21 14:25:23;;;;;;;52.17;20.35;;;11.10;88.50;;;;;;9177145;19;20490;-66
2023/02/21 14:29:05;;;;;;;40.40;17.83;;;11.10;88.50;;;;;;9172376;19;20022;-67
2023/02/21 14:32:34;;;;;;;39.47;17.83;;;11.10;88.50;;;;;;9162850;19;20023;-66
2023/02/21 14:35:46;;;;;;;39.85;17.92;;;11.10;88.50;;;;;;9166986;19;20015;-69
2023/02/21 14:38:54;;;;;;;42.15;18.52;;;11.10;88.50;;;;;;9161889;19;20025;-66
2023/02/21 14:42:37;;;;;;;40.35;17.38;;;11.10;88.50;;;;;;9177419;19;20340;-67
2023/02/21 14:45:59;;;;;;;40.33;17.63;;;11.10;88.60;;;;;;9177623;19;20018;-65
2023/02/21 14:49:42;;;;;;;44.03;17.30;;;11.10;88.50;;;;;;9175774;19;20035;-67
2023/02/21 14:53:29;;;;;;;42.63;17.05;;;11.10;88.50;;;;;;9170438;19;20031;-68
2023/02/21 14:56:48;;;;;;;37.03;17.60;;;11.10;88.50;;;;;;9176983;19;20360;-66
2023/02/21 15:00:18;;;;;;;39.63;16.35;;;11.10;88.50;;;;;;9172573;19;20021;-67
2023/02/21 15:03:27;;;;;;;39.28;16.35;;;11.10;88.50;;;;;;9176903;19;20018;-67
2023/02/21 15:06:35;;;;;;;31.58;15.95;;;11.10;88.50;;;;;;9177105;19;20029;-66
2023/02/21 15:09:39;;;;;;;42.90;17.30;;;11.10;88.50;;;;;;9178185;19;20448;-67
2023/02/21 15:12:48;;;;;;;38.55;16.88;;;11.10;88.50;;;;;;9177208;19;20014;-66
2023/02/21 15:16:01;;;;;;;40.83;16.77;;;11.10;88.50;;;;;;9176019;19;20018;-66
2023/02/21 15:19:11;;;;;;;36.88;15.63;;;11.10;88.50;;;;;;9173069;19;20015;-66
2023/02/21 15:22:18;;;;;;;39.30;15.27;;;11.10;88.60;;;;;;9176790;19;20018;-69
2023/02/21 15:25:24;;;;;;;38.78;15.15;;;11.10;88.50;;;;;;9176167;19;20007;-65
2023/02/21 15:28:30;;;;;;;36.45;16.98;;;11.10;88.50;;;;;;9175795;19;20017;-66
2023/02/21 15:31:42;;;;;;;34.08;15.02;;;11.10;88.50;;;;;;9173389;19;20025;-65
2023/02/21 15:34:48;;;;;;;33.75;14.30;;;11.10;88.50;;;;;;9176718;19;20098;-67
2023/02/21 15:37:56;;;;;;;38.35;15.77;;;11.00;88.40;;;;;;9174441;19;20475;-66
2023/02/21 15:41:04;;;;;;;35.72;15.55;;;11.00;88.50;;;;;;9173995;19;20022;-66
2023/02/21 15:44:15;;;;;;;35.67;14.52;;;11.00;88.50;;;;;;9174942;19;20011;-66
2023/02/21 15:47:23;;;;;;;25.00;11.90;;;11.00;88.50;;;;;;9174176;19;20593;-66
2023/02/21 15:50:36;;;;;;;27.17;11.77;;;11.00;88.50;;;;;;9171677;19;20368;-68
2023/02/21 15:53:40;;;;;;;20.48;9.85;;;11.00;88.50;;;;;;9162209;19;20471;-66
2023/02/21 15:56:46;;;;;;;15.02;7.60;;;11.00;88.50;;;;;;9167011;19;20491;-68
2023/02/21 16:00:17;;;;;;;18.17;7.32;;;11.00;89.10;;;;;;9167496;19;20029;-67
2023/02/21 16:03:46;;;;;;;13.02;6.30;;;11.00;88.50;;;;;;9166222;19;20598;-68
2023/02/21 16:06:53;;;;;;;10.98;5.35;;;11.00;88.50;;;;;;9165611;19;20447;-67
2023/02/21 16:10:01;;;;;;;10.10;5.63;;;10.90;88.40;;;;;;9158560;19;20019;-67
2023/02/21 16:13:05;;;;;;;12.52;6.35;;;10.90;88.40;;;;;;9162354;19;20035;-68
2023/02/21 16:16:11;;;;;;;13.98;6.40;;;10.90;88.50;;;;;;9167597;19;20495;-68
2023/02/21 16:19:17;;;;;;;11.30;5.72;;;10.90;88.40;;;;;;9153424;19;20036;-67
2023/02/21 16:22:33;;;;;;;12.13;6.00;;;10.90;88.50;;;;;;9160101;19;20019;-67
2023/02/21 16:26:00;;;;;;;13.10;6.50;;;10.90;88.60;;;;;;9163446;19;20022;-66
2023/02/21 16:29:06;;;;;;;11.95;5.88;;;10.80;88.40;;;;;;9162176;19;20496;-66
2023/02/21 16:32:18;;;;;;;13.02;5.78;;;10.80;88.40;;;;;;9160350;19;20022;-66
2023/02/21 16:35:27;;;;;;;12.55;5.88;;;10.80;88.80;;;;;;9163326;19;20358;-66
2023/02/21 16:38:31;;;;;;;13.05;6.05;;;10.80;88.50;;;;;;9161026;19;20034;-65
2023/02/21 16:41:37;;;;;;;15.02;6.03;;;10.80;88.50;;;;;;9161619;19;20015;-65
2023/02/21 16:44:43;;;;;;;13.80;6.10;;;10.70;88.50;;;;;;9160951;19;20015;-66
2023/02/21 16:47:51;;;;;;;12.05;5.35;;;10.70;88.50;;;;;;9161479;19;20018;-66
2023/02/21 16:50:57;;;;;;;12.77;5.93;;;10.70;88.60;;;;;;9158298;19;20507;-67
2023/02/21 16:54:04;;;;;;;11.85;6.10;;;10.70;88.50;;;;;;9159237;19;20046;-66
2023/02/21 16:57:08;;;;;;;12.13;5.78;;;10.70;88.50;;;;;;9169041;19;20081;-64
2023/02/21 17:00:16;;;;;;;13.68;6.25;;;10.70;88.60;;;;;;9173953;19;20014;-65
2023/02/21 17:03:20;;;;;;;17.77;6.88;;;10.70;88.50;;;;;;9179105;19;20505;-66
2023/02/21 17:06:29;;;;;;;15.02;6.80;;;10.70;88.50;;;;;;9182589;19;20019;-65
2023/02/21 17:09:37;;;;;;;14.38;6.57;;;10.70;88.60;;;;;;9174412;19;20010;-67
2023/02/21 17:12:44;;;;;;;13.13;5.93;;;10.70;88.60;;;;;;9166943;19;20021;-65
2023/02/21 17:15:48;;;;;;;16.70;6.72;;;10.60;88.50;;;;;;9168661;19;20475;-67
2023/02/21 17:18:54;;;;;;;13.90;7.00;;;10.60;88.50;;;;;;9165889;19;20584;-66
2023/02/21 17:22:00;;;;;;;13.00;6.22;;;10.60;88.50;;;;;;9166855;19;20030;-67
2023/02/21 17:25:07;;;;;;;15.88;7.22;;;10.60;88.60;;;;;;9170872;19;20025;-66
2023/02/21 17:28:11;;;;;;;14.65;6.93;;;10.60;88.50;;;;;;9167487;19;20029;-68
2023/02/21 17:31:18;;;;;;;17.60;8.07;;;10.60;88.50;;;;;;9170725;19;20801;-66
2023/02/21 17:34:23;;;;;;;15.30;6.97;;;10.60;88.50;;;;;;9173618;19;20094;-68
2023/02/21 17:37:31;;;;;;;15.63;7.28;;;10.60;88.50;;;;;;9173148;19;20014;-68
2023/02/21 17:40:35;;;;;;;17.00;7.25;;;10.60;88.50;;;;;;9173447;19;20029;-65
2023/02/21 17:43:41;;;;;;;15.88;7.10;;;10.60;88.50;;;;;;9174592;19;20018;-66
2023/02/21 17:46:47;;;;;;;;;;;10.60;88.50;;;;;;9172483;19;20755;-67
2023/02/21 17:49:53;;;;;;;17.13;7.30;;;10.60;88.50;;;;;;9172971;19;19934;-67
2023/02/21 17:52:58;;;;;;;;;;;10.60;88.50;;;;;;9172164;19;20014;-66
2023/02/21 17:56:05;;;;;;;17.33;7.90;;;10.60;88.50;;;;;;9168038;19;19926;-67
2023/02/21 17:59:09;;;;;;;16.70;8.10;;;10.50;88.30;;;;;;9167457;19;20030;-64
2023/02/21 18:02:17;;;;;;;14.32;6.78;;;10.50;88.40;;;;;;9173507;19;20019;-65
2023/02/21 18:05:22;;;;;;;25.58;12.82;;;10.50;88.50;;;;;;9171657;19;20634;-65
2023/02/21 18:08:30;;;;;;;16.48;8.80;;;10.50;88.50;;;;;;9174081;19;20443;-65
2023/02/21 18:11:35;;;;;;;17.40;8.60;;;10.50;88.50;;;;;;9169072;19;20030;-65
2023/02/21 18:14:40;;;;;;;16.95;8.13;;;10.50;88.50;;;;;;9173503;19;20024;-68
2023/02/21 18:17:44;;;;;;;17.05;7.88;;;10.50;88.60;;;;;;9172797;19;20025;-66
2023/02/21 18:20:51;;;;;;;19.23;9.73;;;10.50;88.50;;;;;;9169640;19;20022;-66
2023/02/21 18:23:56;;;;;;;20.27;8.75;;;10.50;88.50;;;;;;9172098;19;20022;-65
2023/02/21 18:27:02;;;;;;;20.20;8.80;;;10.50;88.50;;;;;;9171931;19;20015;-65